sensor_id;sensor_type;location;lat;lon;timestamp;P1;durP1;ratioP1;P2;durP2;ratioP2
78443;SDS011;67739;52.986;8.894;2023-06-22T00:00:50;2.63;;;0.85;;
78443;SDS011;67739;52.986;8.894;2023-06-22T00:03:20;3.67;;;0.90;;
78443;SDS011;67739;52.986;8.894;2023-06-22T00:05:47;4.40;;;1.20;;
78443;SDS011;67739;52.986;8.894;2023-06-22T00:08:13;3.90;;;0.65;;
78443;SDS011;67739;52.986;8.894;2023-06-22T00:10:39;2.95;;;0.80;;
78443;SDS011;67739;52.986;8.894;2023-06-22T00:13:08;2.88;;;0.93;;
78443;SDS011;67739;52.986;8.894;2023-06-22T00:15:34;2.85;;;0.70;;
78443;SDS011;67739;52.986;8.894;2023-06-22T00:18:01;3.05;;;0.85;;
78443;SDS011;67739;52.986;8.894;2023-06-22T00:20:27;2.22;;;0.60;;
78443;SDS011;67739;52.986;8.894;2023-06-22T00:22:54;4.13;;;0.85;;
78443;SDS011;67739;52.986;8.894;2023-06-22T00:25:20;4.55;;;0.82;;
78443;SDS011;67739;52.986;8.894;2023-06-22T00:27:46;4.70;;;1.17;;
78443;SDS011;67739;52.986;8.894;2023-06-22T00:30:11;2.85;;;0.60;;
78443;SDS011;67739;52.986;8.894;2023-06-22T00:32:37;3.58;;;1.05;;
78443;SDS011;67739;52.986;8.894;2023-06-22T00:35:02;3.70;;;0.63;;
78443;SDS011;67739;52.986;8.894;2023-06-22T00:37:28;4.75;;;1.23;;
78443;SDS011;67739;52.986;8.894;2023-06-22T00:39:54;3.60;;;1.20;;
78443;SDS011;67739;52.986;8.894;2023-06-22T00:42:20;3.00;;;0.80;;
78443;SDS011;67739;52.986;8.894;2023-06-22T00:44:46;3.63;;;1.38;;
78443;SDS011;67739;52.986;8.894;2023-06-22T00:47:12;4.25;;;0.90;;
78443;SDS011;67739;52.986;8.894;2023-06-22T00:49:40;3.13;;;0.98;;
78443;SDS011;67739;52.986;8.894;2023-06-22T00:52:06;3.88;;;1.10;;
78443;SDS011;67739;52.986;8.894;2023-06-22T00:54:39;6.00;;;1.23;;
78443;SDS011;67739;52.986;8.894;2023-06-22T00:57:10;3.05;;;0.98;;
78443;SDS011;67739;52.986;8.894;2023-06-22T00:59:41;4.20;;;1.33;;
78443;SDS011;67739;52.986;8.894;2023-06-22T01:02:07;4.85;;;0.80;;
78443;SDS011;67739;52.986;8.894;2023-06-22T01:04:37;3.15;;;0.98;;
78443;SDS011;67739;52.986;8.894;2023-06-22T01:09:36;5.85;;;1.17;;
78443;SDS011;67739;52.986;8.894;2023-06-22T01:12:11;4.85;;;1.10;;
78443;SDS011;67739;52.986;8.894;2023-06-22T01:15:00;2.97;;;0.75;;
78443;SDS011;67739;52.986;8.894;2023-06-22T01:17:24;3.58;;;0.82;;
78443;SDS011;67739;52.986;8.894;2023-06-22T01:19:54;3.08;;;0.90;;
78443;SDS011;67739;52.986;8.894;2023-06-22T01:22:22;3.28;;;0.95;;
78443;SDS011;67739;52.986;8.894;2023-06-22T01:29:59;4.53;;;1.08;;
78443;SDS011;67739;52.986;8.894;2023-06-22T01:32:31;3.88;;;1.27;;
78443;SDS011;67739;52.986;8.894;2023-06-22T01:35:00;3.33;;;1.20;;
78443;SDS011;67739;52.986;8.894;2023-06-22T01:37:27;4.43;;;1.60;;
78443;SDS011;67739;52.986;8.894;2023-06-22T01:39:55;5.00;;;1.63;;
78443;SDS011;67739;52.986;8.894;2023-06-22T01:42:22;3.78;;;1.08;;
78443;SDS011;67739;52.986;8.894;2023-06-22T01:44:49;3.35;;;0.85;;
78443;SDS011;67739;52.986;8.894;2023-06-22T01:47:17;4.38;;;0.88;;
78443;SDS011;67739;52.986;8.894;2023-06-22T01:49:42;3.47;;;1.15;;
78443;SDS011;67739;52.986;8.894;2023-06-22T01:52:08;4.25;;;1.30;;
78443;SDS011;67739;52.986;8.894;2023-06-22T01:54:34;6.38;;;1.95;;
78443;SDS011;67739;52.986;8.894;2023-06-22T01:56:59;4.57;;;1.45;;
78443;SDS011;67739;52.986;8.894;2023-06-22T01:59:35;5.78;;;1.45;;
78443;SDS011;67739;52.986;8.894;2023-06-22T02:02:09;4.13;;;0.98;;
78443;SDS011;67739;52.986;8.894;2023-06-22T02:04:44;6.82;;;1.90;;
78443;SDS011;67739;52.986;8.894;2023-06-22T02:07:13;5.60;;;2.08;;
78443;SDS011;67739;52.986;8.894;2023-06-22T02:09:42;3.40;;;1.05;;
78443;SDS011;67739;52.986;8.894;2023-06-22T02:12:10;5.32;;;1.58;;
78443;SDS011;67739;52.986;8.894;2023-06-22T02:14:37;4.20;;;1.30;;
78443;SDS011;67739;52.986;8.894;2023-06-22T02:17:04;6.03;;;2.17;;
78443;SDS011;67739;52.986;8.894;2023-06-22T02:19:32;3.42;;;1.25;;
78443;SDS011;67739;52.986;8.894;2023-06-22T02:22:01;3.75;;;1.10;;
78443;SDS011;67739;52.986;8.894;2023-06-22T02:24:26;8.05;;;1.55;;
78443;SDS011;67739;52.986;8.894;2023-06-22T02:26:52;5.97;;;1.52;;
78443;SDS011;67739;52.986;8.894;2023-06-22T02:29:17;4.43;;;1.67;;
78443;SDS011;67739;52.986;8.894;2023-06-22T02:31:42;5.88;;;1.83;;
78443;SDS011;67739;52.986;8.894;2023-06-22T02:34:08;4.43;;;1.20;;
78443;SDS011;67739;52.986;8.894;2023-06-22T02:36:33;5.30;;;1.60;;
78443;SDS011;67739;52.986;8.894;2023-06-22T02:38:59;5.60;;;1.40;;
78443;SDS011;67739;52.986;8.894;2023-06-22T02:41:26;5.38;;;1.70;;
78443;SDS011;67739;52.986;8.894;2023-06-22T02:43:52;4.20;;;1.27;;
78443;SDS011;67739;52.986;8.894;2023-06-22T02:46:17;4.80;;;1.63;;
78443;SDS011;67739;52.986;8.894;2023-06-22T02:48:43;4.95;;;1.88;;
78443;SDS011;67739;52.986;8.894;2023-06-22T02:51:08;4.15;;;1.38;;
78443;SDS011;67739;52.986;8.894;2023-06-22T02:53:34;5.57;;;2.03;;
78443;SDS011;67739;52.986;8.894;2023-06-22T02:56:00;8.13;;;2.08;;
78443;SDS011;67739;52.986;8.894;2023-06-22T02:58:30;5.38;;;1.50;;
78443;SDS011;67739;52.986;8.894;2023-06-22T03:00:58;4.68;;;1.65;;
78443;SDS011;67739;52.986;8.894;2023-06-22T03:05:54;4.53;;;1.97;;
78443;SDS011;67739;52.986;8.894;2023-06-22T03:08:22;5.45;;;1.60;;
78443;SDS011;67739;52.986;8.894;2023-06-22T03:10:54;4.07;;;1.30;;
78443;SDS011;67739;52.986;8.894;2023-06-22T03:13:22;5.03;;;1.75;;
78443;SDS011;67739;52.986;8.894;2023-06-22T03:15:47;4.88;;;1.40;;
78443;SDS011;67739;52.986;8.894;2023-06-22T03:18:13;5.10;;;1.70;;
78443;SDS011;67739;52.986;8.894;2023-06-22T03:20:38;6.25;;;2.53;;
78443;SDS011;67739;52.986;8.894;2023-06-22T03:23:04;5.63;;;2.00;;
78443;SDS011;67739;52.986;8.894;2023-06-22T03:25:29;6.75;;;2.22;;
78443;SDS011;67739;52.986;8.894;2023-06-22T03:27:55;6.85;;;2.00;;
78443;SDS011;67739;52.986;8.894;2023-06-22T03:30:23;5.60;;;1.85;;
78443;SDS011;67739;52.986;8.894;2023-06-22T03:32:48;5.60;;;2.05;;
78443;SDS011;67739;52.986;8.894;2023-06-22T03:35:14;3.17;;;1.27;;
78443;SDS011;67739;52.986;8.894;2023-06-22T03:37:39;6.50;;;1.73;;
78443;SDS011;67739;52.986;8.894;2023-06-22T03:40:05;5.43;;;1.77;;
78443;SDS011;67739;52.986;8.894;2023-06-22T03:42:31;7.20;;;2.10;;
78443;SDS011;67739;52.986;8.894;2023-06-22T03:44:59;5.30;;;1.88;;
78443;SDS011;67739;52.986;8.894;2023-06-22T03:47:26;6.13;;;2.22;;
78443;SDS011;67739;52.986;8.894;2023-06-22T03:49:51;4.97;;;1.52;;
78443;SDS011;67739;52.986;8.894;2023-06-22T03:52:19;3.92;;;1.42;;
78443;SDS011;67739;52.986;8.894;2023-06-22T03:54:45;5.43;;;1.65;;
78443;SDS011;67739;52.986;8.894;2023-06-22T03:57:11;3.67;;;1.27;;
78443;SDS011;67739;52.986;8.894;2023-06-22T03:59:36;4.85;;;1.83;;
78443;SDS011;67739;52.986;8.894;2023-06-22T04:02:01;4.57;;;2.13;;
78443;SDS011;67739;52.986;8.894;2023-06-22T04:04:27;6.00;;;2.03;;
78443;SDS011;67739;52.986;8.894;2023-06-22T04:06:52;4.60;;;1.63;;
78443;SDS011;67739;52.986;8.894;2023-06-22T04:09:18;8.02;;;2.50;;
78443;SDS011;67739;52.986;8.894;2023-06-22T04:11:43;9.20;;;2.40;;
78443;SDS011;67739;52.986;8.894;2023-06-22T04:14:09;5.47;;;1.42;;
78443;SDS011;67739;52.986;8.894;2023-06-22T04:16:34;5.50;;;1.95;;
78443;SDS011;67739;52.986;8.894;2023-06-22T04:18:59;6.00;;;2.33;;
78443;SDS011;67739;52.986;8.894;2023-06-22T04:21:29;6.68;;;2.05;;
78443;SDS011;67739;52.986;8.894;2023-06-22T04:23:54;5.53;;;1.98;;
78443;SDS011;67739;52.986;8.894;2023-06-22T04:26:19;5.00;;;1.80;;
78443;SDS011;67739;52.986;8.894;2023-06-22T04:28:46;5.30;;;1.58;;
78443;SDS011;67739;52.986;8.894;2023-06-22T04:31:16;5.75;;;2.08;;
78443;SDS011;67739;52.986;8.894;2023-06-22T04:33:41;5.35;;;1.48;;
78443;SDS011;67739;52.986;8.894;2023-06-22T04:36:07;7.03;;;2.30;;
78443;SDS011;67739;52.986;8.894;2023-06-22T04:38:32;5.38;;;2.03;;
78443;SDS011;67739;52.986;8.894;2023-06-22T04:40:58;5.55;;;2.28;;
78443;SDS011;67739;52.986;8.894;2023-06-22T04:43:23;5.60;;;2.20;;
78443;SDS011;67739;52.986;8.894;2023-06-22T04:45:49;5.93;;;2.17;;
78443;SDS011;67739;52.986;8.894;2023-06-22T04:48:17;7.00;;;2.58;;
78443;SDS011;67739;52.986;8.894;2023-06-22T04:50:45;5.82;;;2.30;;
78443;SDS011;67739;52.986;8.894;2023-06-22T04:53:11;7.47;;;2.67;;
78443;SDS011;67739;52.986;8.894;2023-06-22T04:55:37;6.88;;;2.92;;
78443;SDS011;67739;52.986;8.894;2023-06-22T04:58:06;7.35;;;3.08;;
78443;SDS011;67739;52.986;8.894;2023-06-22T05:00:32;10.15;;;3.35;;
78443;SDS011;67739;52.986;8.894;2023-06-22T05:03:01;6.60;;;2.13;;
78443;SDS011;67739;52.986;8.894;2023-06-22T05:05:28;8.27;;;3.20;;
78443;SDS011;67739;52.986;8.894;2023-06-22T05:07:55;6.07;;;1.80;;
78443;SDS011;67739;52.986;8.894;2023-06-22T05:10:24;10.68;;;2.65;;
78443;SDS011;67739;52.986;8.894;2023-06-22T05:12:50;8.95;;;4.25;;
78443;SDS011;67739;52.986;8.894;2023-06-22T05:15:15;6.80;;;3.53;;
78443;SDS011;67739;52.986;8.894;2023-06-22T05:17:41;8.52;;;3.83;;
78443;SDS011;67739;52.986;8.894;2023-06-22T05:20:10;5.78;;;2.55;;
78443;SDS011;67739;52.986;8.894;2023-06-22T05:22:36;7.45;;;3.60;;
78443;SDS011;67739;52.986;8.894;2023-06-22T05:25:01;8.77;;;3.90;;
78443;SDS011;67739;52.986;8.894;2023-06-22T05:27:27;9.73;;;3.22;;
78443;SDS011;67739;52.986;8.894;2023-06-22T05:29:52;9.07;;;3.55;;
78443;SDS011;67739;52.986;8.894;2023-06-22T05:32:17;12.00;;;4.43;;
78443;SDS011;67739;52.986;8.894;2023-06-22T05:34:43;6.60;;;2.67;;
78443;SDS011;67739;52.986;8.894;2023-06-22T05:37:09;7.78;;;3.70;;
78443;SDS011;67739;52.986;8.894;2023-06-22T05:39:34;9.05;;;4.20;;
78443;SDS011;67739;52.986;8.894;2023-06-22T05:42:02;12.32;;;4.57;;
78443;SDS011;67739;52.986;8.894;2023-06-22T05:44:29;9.52;;;4.03;;
78443;SDS011;67739;52.986;8.894;2023-06-22T05:46:54;10.40;;;4.20;;
78443;SDS011;67739;52.986;8.894;2023-06-22T05:49:20;10.88;;;4.32;;
78443;SDS011;67739;52.986;8.894;2023-06-22T05:51:47;9.82;;;3.63;;
78443;SDS011;67739;52.986;8.894;2023-06-22T05:54:12;6.35;;;2.75;;
78443;SDS011;67739;52.986;8.894;2023-06-22T05:56:38;8.18;;;3.80;;
78443;SDS011;67739;52.986;8.894;2023-06-22T05:59:04;5.85;;;2.70;;
78443;SDS011;67739;52.986;8.894;2023-06-22T06:01:29;7.57;;;3.50;;
78443;SDS011;67739;52.986;8.894;2023-06-22T06:04:00;6.35;;;2.75;;
78443;SDS011;67739;52.986;8.894;2023-06-22T06:06:26;8.70;;;3.33;;
78443;SDS011;67739;52.986;8.894;2023-06-22T06:08:53;8.77;;;3.10;;
78443;SDS011;67739;52.986;8.894;2023-06-22T06:11:19;8.38;;;4.03;;
78443;SDS011;67739;52.986;8.894;2023-06-22T06:13:44;7.63;;;3.40;;
78443;SDS011;67739;52.986;8.894;2023-06-22T06:16:12;7.60;;;3.58;;
78443;SDS011;67739;52.986;8.894;2023-06-22T06:18:38;7.70;;;3.42;;
78443;SDS011;67739;52.986;8.894;2023-06-22T06:21:03;10.13;;;3.55;;
78443;SDS011;67739;52.986;8.894;2023-06-22T06:23:28;7.63;;;3.30;;
78443;SDS011;67739;52.986;8.894;2023-06-22T06:25:54;5.28;;;1.98;;
78443;SDS011;67739;52.986;8.894;2023-06-22T06:28:19;7.82;;;3.53;;
78443;SDS011;67739;52.986;8.894;2023-06-22T06:30:44;7.95;;;3.00;;
78443;SDS011;67739;52.986;8.894;2023-06-22T06:33:12;7.32;;;2.17;;
78443;SDS011;67739;52.986;8.894;2023-06-22T06:35:37;7.43;;;2.60;;
78443;SDS011;67739;52.986;8.894;2023-06-22T06:38:03;7.30;;;2.55;;
78443;SDS011;67739;52.986;8.894;2023-06-22T06:40:28;5.93;;;2.33;;
78443;SDS011;67739;52.986;8.894;2023-06-22T06:42:53;7.00;;;2.67;;
78443;SDS011;67739;52.986;8.894;2023-06-22T06:45:20;6.32;;;2.13;;
78443;SDS011;67739;52.986;8.894;2023-06-22T06:47:47;5.82;;;2.17;;
78443;SDS011;67739;52.986;8.894;2023-06-22T06:50:13;7.15;;;2.85;;
78443;SDS011;67739;52.986;8.894;2023-06-22T06:52:39;7.32;;;2.88;;
78443;SDS011;67739;52.986;8.894;2023-06-22T06:55:05;6.97;;;2.50;;
78443;SDS011;67739;52.986;8.894;2023-06-22T06:57:39;6.88;;;2.90;;
78443;SDS011;67739;52.986;8.894;2023-06-22T07:00:12;5.40;;;2.03;;
78443;SDS011;67739;52.986;8.894;2023-06-22T07:02:42;6.28;;;2.75;;
78443;SDS011;67739;52.986;8.894;2023-06-22T07:05:09;4.85;;;1.63;;
78443;SDS011;67739;52.986;8.894;2023-06-22T07:07:36;7.50;;;2.08;;
78443;SDS011;67739;52.986;8.894;2023-06-22T07:10:02;6.10;;;2.08;;
78443;SDS011;67739;52.986;8.894;2023-06-22T07:12:28;6.07;;;2.50;;
78443;SDS011;67739;52.986;8.894;2023-06-22T07:14:53;5.93;;;1.60;;
78443;SDS011;67739;52.986;8.894;2023-06-22T07:17:19;7.20;;;3.72;;
78443;SDS011;67739;52.986;8.894;2023-06-22T07:19:44;5.72;;;2.28;;
78443;SDS011;67739;52.986;8.894;2023-06-22T07:22:10;6.22;;;1.95;;
78443;SDS011;67739;52.986;8.894;2023-06-22T07:24:35;5.78;;;1.63;;
78443;SDS011;67739;52.986;8.894;2023-06-22T07:27:02;6.07;;;1.60;;
78443;SDS011;67739;52.986;8.894;2023-06-22T07:29:28;6.20;;;2.15;;
78443;SDS011;67739;52.986;8.894;2023-06-22T07:31:54;5.20;;;1.50;;
78443;SDS011;67739;52.986;8.894;2023-06-22T07:34:21;5.40;;;1.20;;
78443;SDS011;67739;52.986;8.894;2023-06-22T07:36:47;5.55;;;1.38;;
78443;SDS011;67739;52.986;8.894;2023-06-22T07:39:12;4.88;;;1.48;;
78443;SDS011;67739;52.986;8.894;2023-06-22T07:41:38;4.45;;;1.13;;
78443;SDS011;67739;52.986;8.894;2023-06-22T07:44:04;3.30;;;0.95;;
78443;SDS011;67739;52.986;8.894;2023-06-22T07:46:31;5.35;;;1.70;;
78443;SDS011;67739;52.986;8.894;2023-06-22T07:48:56;5.78;;;1.50;;
78443;SDS011;67739;52.986;8.894;2023-06-22T07:51:22;5.45;;;1.45;;
78443;SDS011;67739;52.986;8.894;2023-06-22T07:53:48;3.72;;;1.02;;
78443;SDS011;67739;52.986;8.894;2023-06-22T07:56:14;5.35;;;1.20;;
78443;SDS011;67739;52.986;8.894;2023-06-22T07:58:43;6.28;;;1.35;;
78443;SDS011;67739;52.986;8.894;2023-06-22T08:01:10;3.58;;;1.00;;
78443;SDS011;67739;52.986;8.894;2023-06-22T08:03:36;3.78;;;1.20;;
78443;SDS011;67739;52.986;8.894;2023-06-22T08:06:01;3.58;;;0.90;;
78443;SDS011;67739;52.986;8.894;2023-06-22T08:08:28;4.75;;;1.05;;
78443;SDS011;67739;52.986;8.894;2023-06-22T08:10:53;3.65;;;0.82;;
78443;SDS011;67739;52.986;8.894;2023-06-22T08:13:19;3.70;;;1.05;;
78443;SDS011;67739;52.986;8.894;2023-06-22T08:15:44;2.33;;;0.73;;
78443;SDS011;67739;52.986;8.894;2023-06-22T08:18:09;3.05;;;0.63;;
78443;SDS011;67739;52.986;8.894;2023-06-22T08:20:35;2.60;;;0.60;;
78443;SDS011;67739;52.986;8.894;2023-06-22T08:23:00;3.65;;;0.70;;
78443;SDS011;67739;52.986;8.894;2023-06-22T08:25:30;4.38;;;1.02;;
78443;SDS011;67739;52.986;8.894;2023-06-22T08:27:56;4.22;;;0.95;;
78443;SDS011;67739;52.986;8.894;2023-06-22T08:30:21;3.80;;;0.68;;
78443;SDS011;67739;52.986;8.894;2023-06-22T08:32:47;3.40;;;0.77;;
78443;SDS011;67739;52.986;8.894;2023-06-22T08:35:13;4.60;;;0.70;;
78443;SDS011;67739;52.986;8.894;2023-06-22T08:37:38;3.85;;;0.80;;
78443;SDS011;67739;52.986;8.894;2023-06-22T08:40:04;5.18;;;0.90;;
78443;SDS011;67739;52.986;8.894;2023-06-22T08:42:35;5.07;;;0.93;;
78443;SDS011;67739;52.986;8.894;2023-06-22T08:45:01;3.47;;;0.85;;
78443;SDS011;67739;52.986;8.894;2023-06-22T08:47:27;3.92;;;0.85;;
78443;SDS011;67739;52.986;8.894;2023-06-22T08:49:53;3.97;;;1.33;;
78443;SDS011;67739;52.986;8.894;2023-06-22T08:52:19;2.33;;;0.60;;
78443;SDS011;67739;52.986;8.894;2023-06-22T08:54:45;2.03;;;0.45;;
78443;SDS011;67739;52.986;8.894;2023-06-22T08:57:11;4.20;;;0.80;;
78443;SDS011;67739;52.986;8.894;2023-06-22T08:59:36;3.72;;;0.88;;
78443;SDS011;67739;52.986;8.894;2023-06-22T09:02:02;3.35;;;0.70;;
78443;SDS011;67739;52.986;8.894;2023-06-22T09:04:27;4.38;;;1.05;;
78443;SDS011;67739;52.986;8.894;2023-06-22T09:06:52;3.05;;;0.65;;
78443;SDS011;67739;52.986;8.894;2023-06-22T09:09:18;4.38;;;0.68;;
78443;SDS011;67739;52.986;8.894;2023-06-22T09:11:44;3.15;;;0.88;;
78443;SDS011;67739;52.986;8.894;2023-06-22T09:14:09;3.20;;;0.77;;
78443;SDS011;67739;52.986;8.894;2023-06-22T09:16:35;2.10;;;0.73;;
78443;SDS011;67739;52.986;8.894;2023-06-22T09:19:01;2.35;;;0.50;;
78443;SDS011;67739;52.986;8.894;2023-06-22T09:21:26;2.45;;;0.50;;
78443;SDS011;67739;52.986;8.894;2023-06-22T09:23:52;2.22;;;0.57;;
78443;SDS011;67739;52.986;8.894;2023-06-22T09:26:18;3.08;;;0.80;;
78443;SDS011;67739;52.986;8.894;2023-06-22T09:28:43;2.97;;;0.70;;
78443;SDS011;67739;52.986;8.894;2023-06-22T09:31:09;2.28;;;0.73;;
78443;SDS011;67739;52.986;8.894;2023-06-22T09:33:37;2.72;;;0.60;;
78443;SDS011;67739;52.986;8.894;2023-06-22T09:36:05;4.07;;;0.73;;
78443;SDS011;67739;52.986;8.894;2023-06-22T09:38:38;2.92;;;0.70;;
78443;SDS011;67739;52.986;8.894;2023-06-22T09:41:04;2.97;;;0.70;;
78443;SDS011;67739;52.986;8.894;2023-06-22T09:43:31;3.83;;;0.80;;
78443;SDS011;67739;52.986;8.894;2023-06-22T09:45:57;4.35;;;0.73;;
78443;SDS011;67739;52.986;8.894;2023-06-22T09:48:22;5.00;;;0.75;;
78443;SDS011;67739;52.986;8.894;2023-06-22T09:50:48;3.20;;;1.00;;
78443;SDS011;67739;52.986;8.894;2023-06-22T09:53:13;2.95;;;0.90;;
78443;SDS011;67739;52.986;8.894;2023-06-22T09:55:39;2.25;;;0.47;;
78443;SDS011;67739;52.986;8.894;2023-06-22T09:58:04;3.17;;;0.82;;
78443;SDS011;67739;52.986;8.894;2023-06-22T10:00:29;3.65;;;1.00;;
78443;SDS011;67739;52.986;8.894;2023-06-22T10:02:55;4.40;;;0.80;;
78443;SDS011;67739;52.986;8.894;2023-06-22T10:05:23;2.55;;;0.47;;
78443;SDS011;67739;52.986;8.894;2023-06-22T10:07:49;1.42;;;0.50;;
78443;SDS011;67739;52.986;8.894;2023-06-22T10:10:15;2.70;;;0.75;;
78443;SDS011;67739;52.986;8.894;2023-06-22T10:12:41;3.45;;;0.60;;
78443;SDS011;67739;52.986;8.894;2023-06-22T10:15:11;3.50;;;0.93;;
78443;SDS011;67739;52.986;8.894;2023-06-22T10:17:36;2.58;;;0.60;;
78443;SDS011;67739;52.986;8.894;2023-06-22T10:20:02;2.60;;;0.60;;
78443;SDS011;67739;52.986;8.894;2023-06-22T10:22:37;2.90;;;0.73;;
78443;SDS011;67739;52.986;8.894;2023-06-22T10:25:06;3.50;;;0.73;;
78443;SDS011;67739;52.986;8.894;2023-06-22T10:27:32;1.98;;;0.45;;
78443;SDS011;67739;52.986;8.894;2023-06-22T10:29:58;2.92;;;0.77;;
78443;SDS011;67739;52.986;8.894;2023-06-22T10:32:23;2.08;;;0.55;;
78443;SDS011;67739;52.986;8.894;2023-06-22T10:34:48;2.17;;;0.50;;
78443;SDS011;67739;52.986;8.894;2023-06-22T10:37:14;2.70;;;0.77;;
78443;SDS011;67739;52.986;8.894;2023-06-22T10:39:39;2.90;;;0.73;;
78443;SDS011;67739;52.986;8.894;2023-06-22T10:42:04;2.55;;;0.60;;
78443;SDS011;67739;52.986;8.894;2023-06-22T10:44:30;2.40;;;0.63;;
78443;SDS011;67739;52.986;8.894;2023-06-22T10:46:55;1.58;;;0.32;;
78443;SDS011;67739;52.986;8.894;2023-06-22T10:49:23;3.00;;;0.70;;
78443;SDS011;67739;52.986;8.894;2023-06-22T10:51:48;2.03;;;0.52;;
78443;SDS011;67739;52.986;8.894;2023-06-22T10:54:14;2.08;;;0.50;;
78443;SDS011;67739;52.986;8.894;2023-06-22T10:56:45;2.58;;;0.60;;
78443;SDS011;67739;52.986;8.894;2023-06-22T10:59:10;2.40;;;0.57;;
78443;SDS011;67739;52.986;8.894;2023-06-22T11:01:35;2.83;;;0.65;;
78443;SDS011;67739;52.986;8.894;2023-06-22T11:04:01;2.92;;;0.60;;
78443;SDS011;67739;52.986;8.894;2023-06-22T11:06:27;2.58;;;0.80;;
78443;SDS011;67739;52.986;8.894;2023-06-22T11:08:52;2.58;;;0.65;;
78443;SDS011;67739;52.986;8.894;2023-06-22T11:11:17;2.55;;;0.50;;
78443;SDS011;67739;52.986;8.894;2023-06-22T11:13:43;3.28;;;1.00;;
78443;SDS011;67739;52.986;8.894;2023-06-22T11:16:09;3.35;;;0.80;;
78443;SDS011;67739;52.986;8.894;2023-06-22T11:18:35;3.33;;;0.98;;
78443;SDS011;67739;52.986;8.894;2023-06-22T11:21:00;3.05;;;0.70;;
78443;SDS011;67739;52.986;8.894;2023-06-22T11:23:25;2.25;;;0.50;;
78443;SDS011;67739;52.986;8.894;2023-06-22T11:25:52;2.30;;;0.60;;
78443;SDS011;67739;52.986;8.894;2023-06-22T11:28:18;3.05;;;0.80;;
78443;SDS011;67739;52.986;8.894;2023-06-22T11:30:43;2.10;;;0.60;;
78443;SDS011;67739;52.986;8.894;2023-06-22T11:33:09;2.55;;;0.50;;
78443;SDS011;67739;52.986;8.894;2023-06-22T11:35:34;2.08;;;0.50;;
78443;SDS011;67739;52.986;8.894;2023-06-22T11:37:59;3.85;;;0.80;;
78443;SDS011;67739;52.986;8.894;2023-06-22T11:40:25;2.83;;;0.70;;
78443;SDS011;67739;52.986;8.894;2023-06-22T11:42:50;2.53;;;0.57;;
78443;SDS011;67739;52.986;8.894;2023-06-22T11:45:16;3.42;;;0.85;;
78443;SDS011;67739;52.986;8.894;2023-06-22T11:47:43;2.50;;;0.60;;
78443;SDS011;67739;52.986;8.894;2023-06-22T11:50:08;2.70;;;0.88;;
78443;SDS011;67739;52.986;8.894;2023-06-22T11:52:34;3.10;;;0.70;;
78443;SDS011;67739;52.986;8.894;2023-06-22T11:55:01;3.00;;;0.80;;
78443;SDS011;67739;52.986;8.894;2023-06-22T11:57:28;3.25;;;0.80;;
78443;SDS011;67739;52.986;8.894;2023-06-22T11:59:54;2.63;;;0.75;;
78443;SDS011;67739;52.986;8.894;2023-06-22T12:02:20;2.95;;;0.82;;
78443;SDS011;67739;52.986;8.894;2023-06-22T12:04:45;2.08;;;0.77;;
78443;SDS011;67739;52.986;8.894;2023-06-22T12:07:11;3.60;;;0.93;;
78443;SDS011;67739;52.986;8.894;2023-06-22T12:09:36;2.60;;;0.73;;
78443;SDS011;67739;52.986;8.894;2023-06-22T12:12:02;2.45;;;0.57;;
78443;SDS011;67739;52.986;8.894;2023-06-22T12:14:27;2.08;;;0.55;;
78443;SDS011;67739;52.986;8.894;2023-06-22T12:16:53;1.92;;;0.55;;
78443;SDS011;67739;52.986;8.894;2023-06-22T12:19:21;3.63;;;0.70;;
78443;SDS011;67739;52.986;8.894;2023-06-22T12:21:47;2.67;;;0.70;;
78443;SDS011;67739;52.986;8.894;2023-06-22T12:24:12;2.90;;;0.60;;
78443;SDS011;67739;52.986;8.894;2023-06-22T12:26:37;3.63;;;0.70;;
78443;SDS011;67739;52.986;8.894;2023-06-22T12:29:03;1.65;;;0.40;;
78443;SDS011;67739;52.986;8.894;2023-06-22T12:31:28;2.63;;;0.60;;
78443;SDS011;67739;52.986;8.894;2023-06-22T12:33:53;2.58;;;0.77;;
78443;SDS011;67739;52.986;8.894;2023-06-22T12:36:19;2.45;;;0.60;;
78443;SDS011;67739;52.986;8.894;2023-06-22T12:38:44;2.55;;;0.60;;
78443;SDS011;67739;52.986;8.894;2023-06-22T12:41:09;2.67;;;0.70;;
78443;SDS011;67739;52.986;8.894;2023-06-22T12:43:35;2.35;;;0.52;;
78443;SDS011;67739;52.986;8.894;2023-06-22T12:46:00;3.33;;;0.98;;
78443;SDS011;67739;52.986;8.894;2023-06-22T12:48:26;3.97;;;0.75;;
78443;SDS011;67739;52.986;8.894;2023-06-22T12:50:52;2.85;;;0.60;;
78443;SDS011;67739;52.986;8.894;2023-06-22T12:53:17;3.10;;;0.70;;
78443;SDS011;67739;52.986;8.894;2023-06-22T12:55:43;3.60;;;1.13;;
78443;SDS011;67739;52.986;8.894;2023-06-22T12:58:09;3.85;;;0.88;;
78443;SDS011;67739;52.986;8.894;2023-06-22T13:00:34;3.63;;;0.90;;
78443;SDS011;67739;52.986;8.894;2023-06-22T13:03:00;3.30;;;0.80;;
78443;SDS011;67739;52.986;8.894;2023-06-22T13:05:25;2.72;;;0.70;;
78443;SDS011;67739;52.986;8.894;2023-06-22T13:07:50;4.30;;;1.08;;
78443;SDS011;67739;52.986;8.894;2023-06-22T13:10:16;4.38;;;1.05;;
78443;SDS011;67739;52.986;8.894;2023-06-22T13:12:41;3.58;;;1.00;;
78443;SDS011;67739;52.986;8.894;2023-06-22T13:15:06;2.88;;;0.80;;
78443;SDS011;67739;52.986;8.894;2023-06-22T13:17:32;3.30;;;0.70;;
78443;SDS011;67739;52.986;8.894;2023-06-22T13:19:57;3.88;;;0.95;;
78443;SDS011;67739;52.986;8.894;2023-06-22T13:22:32;4.20;;;1.15;;
78443;SDS011;67739;52.986;8.894;2023-06-22T13:25:04;2.08;;;0.65;;
78443;SDS011;67739;52.986;8.894;2023-06-22T13:27:31;3.83;;;1.05;;
78443;SDS011;67739;52.986;8.894;2023-06-22T13:29:56;3.25;;;1.00;;
78443;SDS011;67739;52.986;8.894;2023-06-22T13:32:21;4.30;;;1.00;;
78443;SDS011;67739;52.986;8.894;2023-06-22T13:34:47;3.70;;;1.02;;
78443;SDS011;67739;52.986;8.894;2023-06-22T13:37:12;4.38;;;1.38;;
78443;SDS011;67739;52.986;8.894;2023-06-22T13:39:38;3.20;;;1.00;;
78443;SDS011;67739;52.986;8.894;2023-06-22T13:42:03;4.32;;;1.10;;
78443;SDS011;67739;52.986;8.894;2023-06-22T13:44:29;3.50;;;0.95;;
78443;SDS011;67739;52.986;8.894;2023-06-22T13:46:55;3.72;;;1.17;;
78443;SDS011;67739;52.986;8.894;2023-06-22T13:49:20;4.45;;;1.20;;
78443;SDS011;67739;52.986;8.894;2023-06-22T13:51:46;3.90;;;1.13;;
78443;SDS011;67739;52.986;8.894;2023-06-22T13:54:13;2.85;;;0.75;;
78443;SDS011;67739;52.986;8.894;2023-06-22T13:56:38;3.55;;;1.10;;
78443;SDS011;67739;52.986;8.894;2023-06-22T13:59:03;3.53;;;1.00;;
78443;SDS011;67739;52.986;8.894;2023-06-22T14:01:29;4.90;;;1.40;;
78443;SDS011;67739;52.986;8.894;2023-06-22T14:03:54;4.55;;;1.27;;
78443;SDS011;67739;52.986;8.894;2023-06-22T14:06:19;5.47;;;1.70;;
78443;SDS011;67739;52.986;8.894;2023-06-22T14:08:45;4.63;;;1.33;;
78443;SDS011;67739;52.986;8.894;2023-06-22T14:11:10;4.82;;;1.50;;
78443;SDS011;67739;52.986;8.894;2023-06-22T14:13:35;3.85;;;1.33;;
78443;SDS011;67739;52.986;8.894;2023-06-22T14:16:01;3.50;;;1.00;;
78443;SDS011;67739;52.986;8.894;2023-06-22T14:18:27;4.13;;;1.17;;
78443;SDS011;67739;52.986;8.894;2023-06-22T14:20:52;5.20;;;1.33;;
78443;SDS011;67739;52.986;8.894;2023-06-22T14:26:05;4.55;;;1.27;;
78443;SDS011;67739;52.986;8.894;2023-06-22T14:28:31;4.30;;;1.50;;
78443;SDS011;67739;52.986;8.894;2023-06-22T14:30:56;6.13;;;1.80;;
78443;SDS011;67739;52.986;8.894;2023-06-22T14:33:22;3.95;;;1.42;;
78443;SDS011;67739;52.986;8.894;2023-06-22T14:35:47;5.43;;;1.83;;
78443;SDS011;67739;52.986;8.894;2023-06-22T14:38:12;4.85;;;1.63;;
78443;SDS011;67739;52.986;8.894;2023-06-22T14:40:38;3.72;;;1.20;;
78443;SDS011;67739;52.986;8.894;2023-06-22T14:43:03;5.13;;;1.50;;
78443;SDS011;67739;52.986;8.894;2023-06-22T14:45:28;5.22;;;1.20;;
78443;SDS011;67739;52.986;8.894;2023-06-22T14:47:53;5.25;;;1.70;;
78443;SDS011;67739;52.986;8.894;2023-06-22T14:50:19;4.63;;;1.50;;
78443;SDS011;67739;52.986;8.894;2023-06-22T14:52:44;5.38;;;1.98;;
78443;SDS011;67739;52.986;8.894;2023-06-22T14:55:09;4.97;;;1.67;;